Portada
METAR-TAF:

METAR-TAF

Aeropuertos :

Aeropuerto de Belgrado-Nikola Tesla

Belgrado, Serbia

latitud: 44-49N, longitud: 020-17E, altitud: 96 m

Observación

El informe se hizo hace 32 minutos, a las 07:00 UTC
Viento 5 kt del sur-sureste
Temperatura 3°C
Humedad 75%
Presión 1023 hPa
Visibilidad: 8000 m

METAR: LYBE 210700Z 16005KT 8000 NSC 03/M01 Q1023 NOSIG

Hora: 08:32 (07:32 UTC)

Pronóstico

El informe se hizo hace 2 horas y 32 minutos, a las 05:00 UTC
Pronóstico válido del 21 a las 06 UTC al 22 a las 06 UTC
Viento 4 kt del sur
Visibilidad: 8000 m
Temporalmente
del 21 a las 06 UTC al 21 a las 08 UTC
Visibilidad: 3000 m
neblina
Evolucionando progresivamente
del 21 a las 12 UTC al 21 a las 14 UTC
Viento 14 kt del norte-noroeste
Evolucionando progresivamente
del 22 a las 02 UTC al 22 a las 04 UTC
Viento 6 kt del oeste

TAF: LYBE 210500Z 2106/2206 18004KT 8000 NSC TX09/2113Z TNM00/2206Z TEMPO 2106/2108 3000 BR BECMG 2112/2114 33014KT BECMG 2202/2204 27006KT

Observaciones y pronósticos meteorológicos de más de 4000 aeropuertos (mensajes METAR y TAF).

Los puntos amarillos y rojos representan las estaciones disponibles.

Ponga el ratón en el punto deseado para ver el nombre de la estación.

Haga clic para ver las observaciones y los pronósticos meteorológicos.

Para cambiar el mapa : haga clic en los botones verdes con una cruz de color negro para hacer un zoom, en el botón verde con un guión para alejar o en las flechas verdes para mapas adyacentes.


METAR-TAF: